Time;durP1;ratioP1;P1;durP2;ratioP2;P2;SDS_P1;SDS_P2;PMS_P1;PMS_P2;Temp;Humidity;BMP_temperature;BMP_pressure;BME280_temperature;BME280_humidity;BME280_pressure;Samples;Min_cycle;Max_cycle;Signal;HPM_P1;HPM_P2
2022/04/26 03:36:24;;;;;;;;;;;7.10;87.70;;;;;;5078591;28;20229;-69
2022/04/26 03:38:52;;;;;;;;;;;7.10;88.60;;;;;;5076503;28;19908;-69
2022/04/26 03:41:17;;;;;;;;;;;7.10;88.70;;;;;;5076888;28;19915;-69
2022/04/26 03:43:46;;;;;;;;;;;7.10;88.90;;;;;;5076047;28;20212;-69
2022/04/26 03:46:11;;;;;;;;;;;7.10;89.00;;;;;;5077925;28;19923;-69
2022/04/26 03:48:37;;;;;;;;;;;7.10;89.00;;;;;;5076879;28;19913;-69
2022/04/26 03:51:02;;;;;;;;;;;7.10;89.50;;;;;;5077810;28;19995;-69
2022/04/26 03:53:28;;;;;;;;;;;7.10;90.10;;;;;;5076518;28;19912;-69
2022/04/26 03:55:54;;;;;;;;;;;7.10;89.90;;;;;;5077439;28;20243;-69
2022/04/26 03:58:19;;;;;;;;;;;7.10;91.20;;;;;;5076116;28;20003;-69
2022/04/26 04:00:48;;;;;;;;;;;7.10;91.10;;;;;;5077534;28;20275;-69
2022/04/26 04:03:13;;;;;;;;;;;7.10;90.30;;;;;;5076841;28;19913;-69
2022/04/26 04:05:42;;;;;;;;;;;7.10;90.10;;;;;;5075368;28;19923;-69
2022/04/26 04:08:07;;;;;;;;;;;7.10;89.20;;;;;;5084962;28;19904;-69
2022/04/26 04:10:33;;;;;;;;;;;7.10;88.90;;;;;;5076103;28;20321;-69
2022/04/26 04:12:59;;;;;;;;;;;7.10;88.30;;;;;;5076306;28;19916;-69
2022/04/26 04:15:24;;;;;;;;;;;7.10;87.90;;;;;;5072601;28;19943;-69
2022/04/26 04:17:50;;;;;;;;;;;7.10;87.80;;;;;;5076030;28;19912;-70
2022/04/26 04:20:15;;;;;;;;;;;7.10;87.00;;;;;;5076423;28;19968;-69
2022/04/26 04:22:43;;;;;;;;;;;7.10;86.90;;;;;;5072417;28;20237;-69
2022/04/26 04:25:09;;;;;;;;;;;7.10;86.20;;;;;;5075640;28;19953;-69
2022/04/26 04:27:34;;;;;;;;;;;7.10;86.20;;;;;;5077393;28;20003;-70
2022/04/26 04:30:02;;;;;;;;;;;7.10;85.50;;;;;;5076103;28;19916;-69
2022/04/26 04:32:28;;;;;;;;;;;7.10;85.20;;;;;;5075424;28;19908;-69
2022/04/26 04:34:54;;;;;;;;;;;7.10;84.80;;;;;;5075749;28;20221;-69
2022/04/26 04:37:19;;;;;;;;;;;7.10;84.80;;;;;;5077314;28;19917;-70
2022/04/26 04:39:45;;;;;;;;;;;7.10;85.00;;;;;;5077498;28;19915;-70
2022/04/26 04:42:13;;;;;;;;;;;7.10;85.20;;;;;;5076433;28;20194;-70
2022/04/26 04:44:38;;;;;;;;;;;7.10;85.00;;;;;;5077600;28;19912;-70
2022/04/26 04:47:04;;;;;;;;;;;7.10;84.80;;;;;;5073376;28;19915;-69
2022/04/26 04:49:29;;;;;;;;;;;7.10;84.90;;;;;;5076303;28;19915;-70
2022/04/26 04:51:55;;;;;;;;;;;7.10;85.20;;;;;;5077226;28;19909;-70
2022/04/26 04:54:21;;;;;;;;;;;7.10;85.10;;;;;;5074741;28;19966;-71
2022/04/26 04:56:46;;;;;;;;;;;7.10;84.70;;;;;;5078481;28;19908;-70
2022/04/26 04:59:12;;;;;;;;;;;7.10;85.10;;;;;;5076643;28;20225;-69
2022/04/26 05:01:37;;;;;;;;;;;7.10;84.70;;;;;;5078580;28;19919;-71
2022/04/26 05:04:03;;;;;;;;;;;7.10;85.00;;;;;;5075666;28;19912;-70
2022/04/26 05:06:28;;;;;;;;;;;7.10;84.20;;;;;;5079282;28;19912;-69
2022/04/26 05:09:02;;;;;;;;;;;7.10;84.90;;;;;;5078782;28;19908;-69
2022/04/26 05:11:28;;;;;;;;;;;7.10;85.10;;;;;;5075512;28;19916;-69
2022/04/26 05:13:53;;;;;;;;;;;7.20;84.60;;;;;;5074381;28;19920;-69
2022/04/26 05:16:19;;;;;;;;;;;7.20;84.90;;;;;;5078958;28;19904;-69
2022/04/26 05:18:45;;;;;;;;;;;7.20;86.00;;;;;;5074693;28;20049;-69
2022/04/26 05:21:13;;;;;;;;;;;7.20;86.30;;;;;;5076629;28;19909;-69
2022/04/26 05:26:23;;;;;;;;;;;7.40;87.60;;;;;;5075247;28;19915;-70
2022/04/26 05:28:49;;;;;;;;;;;7.50;87.80;;;;;;5082257;28;19904;-69
2022/04/26 05:31:15;;;;;;;;;;;7.50;88.60;;;;;;5081019;28;19916;-69
2022/04/26 05:33:40;;;;;;;;;;;7.60;89.40;;;;;;5075885;28;20209;-70
2022/04/26 05:36:06;;;;;;;;;;;7.70;89.00;;;;;;5076611;28;20289;-69
2022/04/26 05:38:31;;;;;;;;;;;7.70;90.20;;;;;;5074289;28;20306;-69
2022/04/26 05:40:57;;;;;;;;;;;7.70;90.70;;;;;;5074791;28;20263;-69
2022/04/26 05:43:23;;;;;;;;;;;7.60;91.80;;;;;;5073753;28;19908;-69
2022/04/26 05:45:48;;;;;;;;;;;7.50;92.10;;;;;;5075616;28;19912;-69
2022/04/26 05:48:14;;;;;;;;;;;7.40;92.20;;;;;;5075042;28;19971;-69
2022/04/26 05:50:42;;;;;;;;;;;7.40;92.90;;;;;;5074453;28;19908;-70
2022/04/26 05:53:08;;;;;;;;;;;7.50;92.70;;;;;;5072220;28;20325;-70
2022/04/26 05:55:34;;;;;;;;;;;7.40;92.80;;;;;;5075644;28;19911;-70
2022/04/26 05:58:01;;;;;;;;;;;7.40;93.40;;;;;;5077198;28;19937;-69
2022/04/26 06:00:27;;;;;;;;;;;7.30;94.30;;;;;;5072171;28;19955;-68
2022/04/26 06:02:52;;;;;;;;;;;7.20;94.00;;;;;;5074319;28;19952;-68
2022/04/26 06:05:21;;;;;;;;;;;7.40;93.70;;;;;;5076396;28;19908;-68
2022/04/26 06:07:46;;;;;;;;;;;7.50;93.90;;;;;;5074665;28;19963;-67
2022/04/26 06:10:15;;;;;;;;;;;7.50;93.70;;;;;;5075106;28;19935;-68
2022/04/26 06:12:44;;;;;;;;;;;7.60;93.60;;;;;;5075540;28;19985;-68
2022/04/26 06:15:10;;;;;;;;;;;7.60;92.90;;;;;;5076457;28;19904;-67
2022/04/26 06:17:35;;;;;;;;;;;7.60;93.90;;;;;;5076404;28;19995;-70
2022/04/26 06:20:01;;;;;;;;;;;7.50;94.90;;;;;;5076387;28;20279;-70
2022/04/26 06:22:29;;;;;;;;;;;7.40;94.90;;;;;;5072556;28;19909;-69
2022/04/26 06:24:54;;;;;;;;;;;7.40;94.60;;;;;;5073277;28;19916;-69
2022/04/26 06:27:23;;;;;;;;;;;7.30;94.60;;;;;;5075431;28;19909;-70
2022/04/26 06:29:49;;;;;;;;;;;7.30;94.80;;;;;;5075529;28;19908;-70
2022/04/26 06:32:14;;;;;;;;;;;7.40;95.00;;;;;;5074113;28;19908;-69
2022/04/26 06:34:40;;;;;;;;;;;7.40;94.90;;;;;;5076002;28;19919;-69
2022/04/26 06:37:05;;;;;;;;;;;7.60;94.30;;;;;;5072138;28;19916;-68
2022/04/26 06:39:31;;;;;;;;;;;7.70;95.10;;;;;;5072710;28;19915;-69
2022/04/26 06:41:56;;;;;;;;;;;7.70;95.00;;;;;;5075515;28;19915;-69
2022/04/26 06:44:22;;;;;;;;;;;7.70;96.10;;;;;;5074100;28;19912;-69
2022/04/26 06:46:47;;;;;;;;;;;7.60;95.90;;;;;;5076062;28;19916;-69
2022/04/26 06:49:13;;;;;;;;;;;7.60;95.90;;;;;;5073865;28;20307;-68
2022/04/26 06:51:42;;;;;;;;;;;7.60;97.00;;;;;;5072438;28;19961;-69
2022/04/26 06:54:08;;;;;;;;;;;7.50;96.30;;;;;;5070539;28;19959;-69
2022/04/26 06:56:33;;;;;;;;;;;7.60;96.20;;;;;;5074599;28;19930;-69
2022/04/26 06:58:59;;;;;;;;;;;7.70;95.90;;;;;;5075050;28;20000;-68
2022/04/26 07:01:25;;;;;;;;;;;7.70;96.50;;;;;;5076912;28;20257;-69
2022/04/26 07:03:50;;;;;;;;;;;7.80;96.70;;;;;;5079838;28;20229;-68
2022/04/26 07:06:16;;;;;;;;;;;7.80;96.80;;;;;;5079862;28;19958;-69
2022/04/26 07:08:41;;;;;;;;;;;7.90;96.50;;;;;;5078318;28;19908;-69
2022/04/26 07:11:07;;;;;;;;;;;8.00;96.60;;;;;;5079666;28;19950;-69
2022/04/26 07:13:32;;;;;;;;;;;8.20;97.90;;;;;;5077727;28;19962;-68
2022/04/26 07:16:00;;;;;;;;;;;8.30;97.80;;;;;;5078476;28;19961;-69
2022/04/26 07:18:26;;;;;;;;;;;8.40;98.00;;;;;;5079721;28;19904;-68
2022/04/26 07:20:52;;;;;;;;;;;8.50;98.00;;;;;;5079694;28;19905;-69
2022/04/26 07:23:17;;;;;;;;;;;8.50;98.00;;;;;;5078565;28;20025;-68
2022/04/26 07:25:43;;;;;;;;;;;8.60;98.00;;;;;;5079241;28;19908;-69
2022/04/26 07:28:09;;;;;;;;;;;8.70;97.80;;;;;;5078560;28;19918;-68
2022/04/26 07:30:34;;;;;;;;;;;8.90;98.00;;;;;;5079514;28;19952;-69
2022/04/26 07:35:45;;;;;;;;;;;8.90;98.00;;;;;;5079250;28;19919;-68
2022/04/26 07:38:10;;;;;;;;;;;8.90;98.00;;;;;;5077736;28;19912;-68
2022/04/26 07:40:36;;;;;;;;;;;8.90;98.00;;;;;;5078769;28;20221;-69
2022/04/26 07:43:02;;;;;;;;;;;8.90;98.00;;;;;;5078468;28;19962;-68
2022/04/26 07:45:27;;;;;;;;;;;8.80;98.00;;;;;;5079002;28;19915;-68
2022/04/26 07:59:55;;;;;;;14.98;12.10;;;9.20;98.00;;;;;;5112609;27;20416;-69
2022/04/26 08:02:22;;;;;;;17.33;12.48;;;9.00;98.00;;;;;;5095572;28;20024;-69
2022/04/26 08:04:48;;;;;;;15.60;11.10;;;8.90;98.00;;;;;;5094101;28;20051;-68
2022/04/26 08:07:13;;;;;;;21.08;14.43;;;8.80;98.00;;;;;;5112501;28;20058;-68
2022/04/26 08:09:39;;;;;;;16.92;12.18;;;8.70;98.00;;;;;;5113400;28;20024;-69
2022/04/26 08:12:06;;;;;;;15.68;11.75;;;8.80;98.00;;;;;;5113516;28;20020;-68
2022/04/26 08:14:32;;;;;;;14.23;11.18;;;8.80;98.00;;;;;;5113205;28;20073;-68
2022/04/26 08:16:57;;;;;;;15.73;11.20;;;8.80;98.00;;;;;;5113250;28;20030;-68
2022/04/26 08:19:23;;;;;;;13.18;10.20;;;8.80;98.00;;;;;;5111271;28;20098;-68
2022/04/26 08:21:49;;;;;;;11.38;9.50;;;8.70;98.00;;;;;;5107841;28;20058;-68
2022/04/26 08:29:42;;;;;;;14.20;9.50;;;9.30;98.00;;;;;;5112130;28;20083;-67
2022/04/26 08:32:08;;;;;;;11.85;9.65;;;9.20;98.00;;;;;;5111632;28;20040;-68
2022/04/26 08:34:34;;;;;;;11.77;9.25;;;9.10;98.00;;;;;;5100828;28;20024;-68
2022/04/26 08:37:00;;;;;;;12.48;9.45;;;9.20;98.00;;;;;;5098854;28;20016;-67
2022/04/26 08:39:25;;;;;;;12.15;9.07;;;9.20;98.00;;;;;;5099745;28;20047;-67
2022/04/26 08:41:57;;;;;;;12.30;8.57;;;9.20;98.00;;;;;;5091746;28;20016;-67
2022/04/26 08:44:26;;;;;;;12.25;9.55;;;9.20;98.00;;;;;;5099138;28;20031;-67
2022/04/26 08:52:27;;;;;;;14.95;9.20;;;9.20;98.00;;;;;;5102879;28;20031;-69
2022/04/26 08:54:53;;;;;;;12.02;9.60;;;8.90;98.00;;;;;;5112082;28;20020;-67
2022/04/26 08:57:18;;;;;;;12.82;9.90;;;9.00;98.00;;;;;;5104113;28;20012;-69
2022/04/26 08:59:51;;;;;;;14.52;9.63;;;9.00;98.00;;;;;;5098308;28;20044;-68
2022/04/26 09:02:22;;;;;;;19.40;13.90;;;9.20;98.00;;;;;;5096334;28;20024;-68
2022/04/26 09:05:10;;;;;;;12.18;8.90;;;9.50;98.00;;;;;;5097364;28;20016;-68
2022/04/26 09:07:39;;;;;;;11.52;9.45;;;9.80;98.00;;;;;;5098313;28;20020;-69
2022/04/26 09:10:13;;;;;;;13.02;9.38;;;9.90;98.00;;;;;;5078212;28;20024;-68
2022/04/26 09:12:59;;;;;;;11.60;9.07;;;10.10;98.00;;;;;;5092935;28;20058;-69
2022/04/26 09:15:25;;;;;;;11.13;7.95;;;10.20;98.00;;;;;;5080648;28;20024;-68
2022/04/26 09:17:52;;;;;;;11.63;8.30;;;10.30;98.00;;;;;;5095730;28;20424;-68
2022/04/26 09:20:39;;;;;;;14.95;9.43;;;10.20;98.00;;;;;;5098154;28;20032;-68
2022/04/26 09:23:20;;;;;;;15.73;10.30;;;10.20;98.00;;;;;;5097969;28;20042;-69
2022/04/26 09:25:48;;;;;;;13.10;9.27;;;10.10;98.00;;;;;;5080372;28;20028;-68
2022/04/26 09:28:24;;;;;;;12.68;9.07;;;10.30;98.00;;;;;;5096438;28;20024;-68
2022/04/26 09:30:51;;;;;;;13.70;8.35;;;10.60;98.00;;;;;;5097355;28;20016;-69
2022/04/26 09:33:38;;;;;;;11.25;8.00;;;10.80;97.40;;;;;;5096987;28;20102;-68
2022/04/26 09:36:11;;;;;;;11.00;8.43;;;11.00;96.50;;;;;;5078459;28;20309;-69
2022/04/26 09:38:38;;;;;;;9.85;7.38;;;11.20;96.10;;;;;;5097845;28;20028;-68
2022/04/26 09:41:10;;;;;;;9.82;6.85;;;11.60;94.60;;;;;;5098150;28;20089;-68
2022/04/26 09:43:38;;;;;;;10.00;7.20;;;11.70;94.80;;;;;;5097653;28;20622;-69
2022/04/26 09:46:04;;;;;;;9.73;7.32;;;12.20;93.10;;;;;;5095253;28;20035;-69
2022/04/26 09:48:38;;;;;;;10.00;7.35;;;12.60;92.90;;;;;;5096278;28;20097;-69
2022/04/26 09:51:05;;;;;;;8.82;6.68;;;12.50;89.80;;;;;;5096695;28;20094;-69
2022/04/26 09:53:37;;;;;;;11.82;7.32;;;12.20;90.90;;;;;;5097028;28;20332;-67
2022/04/26 09:56:07;;;;;;;10.75;7.03;;;11.90;91.60;;;;;;5096852;28;20024;-67
2022/04/26 09:58:34;;;;;;;11.85;8.02;;;11.80;91.30;;;;;;5097257;28;20436;-68
2022/04/26 10:01:04;;;;;;;11.20;8.15;;;11.70;92.00;;;;;;5097734;28;20028;-68
2022/04/26 10:03:39;;;;;;;13.13;9.30;;;11.30;94.20;;;;;;5095282;28;20493;-70
2022/04/26 10:06:18;;;;;;;14.57;9.75;;;10.70;95.80;;;;;;5079176;28;20028;-68
2022/04/26 10:08:50;;;;;;;13.45;10.48;;;9.90;97.70;;;;;;5097506;28;20024;-68
2022/04/26 10:11:17;;;;;;;14.77;9.52;;;9.40;98.00;;;;;;5095864;28;20024;-70
2022/04/26 10:13:45;;;;;;;13.13;10.45;;;9.00;98.00;;;;;;5097484;28;20024;-70
2022/04/26 10:16:19;;;;;;;14.65;10.63;;;8.70;98.00;;;;;;5097103;28;20410;-70
2022/04/26 10:18:48;;;;;;;14.23;9.68;;;8.60;98.00;;;;;;5057923;28;20440;-69
2022/04/26 10:21:23;;;;;;;17.02;11.90;;;8.50;98.00;;;;;;5079008;28;20093;-69
2022/04/26 10:23:51;;;;;;;20.48;15.25;;;8.50;97.50;;;;;;5077915;28;20024;-69
2022/04/26 10:26:23;;;;;;;16.88;13.18;;;8.50;97.90;;;;;;5094450;28;20030;-68
2022/04/26 10:29:01;;;;;;;;;;;8.60;97.70;;;;;;5097149;28;20028;-68
2022/04/26 10:31:58;;;;;;;16.35;11.70;;;8.70;97.10;;;;;;5085052;28;19919;-68
2022/04/26 10:34:29;;;;;;;14.02;10.98;;;9.00;96.60;;;;;;5071037;28;20432;-68
2022/04/26 10:37:01;;;;;;;14.93;9.88;;;9.40;96.40;;;;;;5109592;28;20032;-68
2022/04/26 10:39:33;;;;;;;12.40;9.18;;;9.70;98.00;;;;;;5098880;28;20032;-68
2022/04/26 10:42:01;;;;;;;12.60;8.63;;;10.60;98.00;;;;;;5089453;28;20028;-69
2022/04/26 10:44:33;;;;;;;10.57;6.97;;;12.00;98.00;;;;;;5095565;28;21912;-69
2022/04/26 10:47:02;;;;;;;10.77;5.90;;;13.70;98.00;;;;;;5096810;28;20032;-68
2022/04/26 10:49:39;;;;;;;10.93;6.38;;;15.10;86.40;;;;;;5092005;28;20028;-68
2022/04/26 10:52:14;;;;;;;11.30;5.80;;;14.70;82.90;;;;;;5077897;28;20058;-68
2022/04/26 10:54:49;;;;;;;10.02;5.57;;;13.40;85.30;;;;;;5077767;28;20008;-66
2022/04/26 10:57:20;;;;;;;8.50;4.93;;;12.40;86.30;;;;;;5096494;28;20089;-68
2022/04/26 10:59:53;;;;;;;8.32;4.57;;;12.40;84.30;;;;;;5096477;28;20044;-68
2022/04/26 11:02:21;;;;;;;9.88;3.92;;;12.90;81.00;;;;;;5094949;28;20020;-68
2022/04/26 11:04:54;;;;;;;6.97;3.80;;;13.20;76.00;;;;;;5093316;28;20085;-68
2022/04/26 11:07:25;;;;;;;5.93;3.40;;;13.10;77.80;;;;;;5089762;28;20317;-68
2022/04/26 11:09:53;;;;;;;7.57;3.72;;;12.70;77.70;;;;;;5096401;28;20333;-68
2022/04/26 11:12:24;;;;;;;9.55;4.20;;;12.40;75.70;;;;;;5095361;28;20016;-67
2022/04/26 11:14:51;;;;;;;8.05;3.78;;;12.20;76.80;;;;;;5096260;28;20023;-68
2022/04/26 11:17:19;;;;;;;6.97;3.95;;;12.30;77.10;;;;;;5078181;28;20020;-67
2022/04/26 11:19:53;;;;;;;7.93;4.35;;;12.80;76.80;;;;;;5075941;28;20046;-68
2022/04/26 11:22:20;;;;;;;8.13;4.93;;;13.00;76.40;;;;;;5095987;28;20040;-68
2022/04/26 11:30:31;;;;;;;8.02;3.80;;;12.80;82.10;;;;;;5096347;28;20035;-68
2022/04/26 11:32:59;;;;;;;6.00;3.67;;;13.20;77.60;;;;;;5093550;28;20090;-67
2022/04/26 11:35:26;;;;;;;6.80;4.03;;;13.10;76.90;;;;;;5076273;28;20024;-67
2022/04/26 11:37:57;;;;;;;6.05;3.63;;;12.90;75.80;;;;;;5095591;28;20020;-68
2022/04/26 11:40:28;;;;;;;8.85;4.00;;;13.40;76.60;;;;;;5095667;28;20035;-68
2022/04/26 11:42:56;;;;;;;7.30;4.47;;;13.30;76.30;;;;;;5096006;28;20047;-69
2022/04/26 11:45:28;;;;;;;7.45;4.68;;;12.40;80.20;;;;;;5095609;28;20443;-68
2022/04/26 11:47:55;;;;;;;8.25;5.25;;;12.00;82.40;;;;;;5094770;28;20806;-68
2022/04/26 11:50:23;;;;;;;6.07;4.30;;;12.20;84.60;;;;;;5091607;28;20024;-69
2022/04/26 11:52:52;;;;;;;5.97;3.70;;;12.30;82.10;;;;;;5095005;28;20016;-67
2022/04/26 11:55:31;;;;;;;5.72;3.80;;;12.20;81.10;;;;;;5092786;28;20020;-68
2022/04/26 11:58:41;;;;;;;5.50;3.72;;;11.90;80.40;;;;;;5093709;28;20044;-68
2022/04/26 12:01:15;;;;;;;6.85;3.45;;;12.30;82.00;;;;;;5028332;28;20047;-68
2022/04/26 12:03:54;;;;;;;5.88;3.33;;;12.30;80.50;;;;;;5102515;28;20024;-68
2022/04/26 12:06:26;;;;;;;5.35;2.67;;;12.40;80.60;;;;;;5066383;28;20314;-68
2022/04/26 12:09:06;;;;;;;4.90;2.25;;;12.40;80.70;;;;;;5060044;28;20034;-68
2022/04/26 12:11:36;;;;;;;3.83;2.22;;;12.00;80.70;;;;;;5087467;28;20040;-68
2022/04/26 12:14:08;;;;;;;5.30;2.58;;;11.70;79.30;;;;;;5041175;28;20355;-69
2022/04/26 12:16:54;;;;;;;5.60;3.38;;;11.20;79.80;;;;;;5090723;28;20377;-68
2022/04/26 12:19:36;;;;;;;5.28;3.08;;;10.90;78.90;;;;;;5076157;28;20032;-68
2022/04/26 12:22:02;;;;;;;5.85;3.28;;;10.60;80.60;;;;;;5075040;28;20037;-68
2022/04/26 12:24:32;;;;;;;4.78;2.90;;;10.70;81.60;;;;;;5075092;28;20320;-68
2022/04/26 12:26:59;;;;;;;3.58;1.70;;;10.70;81.30;;;;;;5087157;28;20024;-68
2022/04/26 12:29:39;;;;;;;3.85;2.33;;;11.30;79.60;;;;;;5090822;28;20090;-69
2022/04/26 12:32:28;;;;;;;4.60;2.42;;;12.20;79.10;;;;;;5077321;28;20024;-68
2022/04/26 12:34:56;;;;;;;5.70;2.55;;;13.10;76.10;;;;;;5094383;28;20020;-68
2022/04/26 12:37:25;;;;;;;6.20;3.22;;;12.40;74.50;;;;;;5099097;28;20028;-68
2022/04/26 12:40:14;;;;;;;6.32;4.28;;;11.60;77.50;;;;;;5097934;28;20012;-68
2022/04/26 12:42:42;;;;;;;5.38;3.42;;;11.70;78.30;;;;;;5095695;28;20298;-68
2022/04/26 12:45:21;;;;;;;6.30;3.65;;;11.60;79.80;;;;;;5098207;28;20101;-68
2022/04/26 12:51:11;;;;;;;5.68;3.40;;;11.60;80.30;;;;;;5098926;28;20027;-67
2022/04/26 12:53:38;;;;;;;7.07;3.40;;;12.20;81.10;;;;;;5080803;28;20427;-66
2022/04/26 12:56:11;;;;;;;4.65;2.95;;;13.10;80.50;;;;;;5085532;28;20031;-66
2022/04/26 12:58:38;;;;;;;;;;;12.70;78.70;;;;;;5102408;28;20047;-67
2022/04/26 13:01:06;;;;;;;5.22;3.25;;;12.60;78.80;;;;;;5097317;28;19914;-67
2022/04/26 13:03:33;;;;;;;5.60;3.58;;;12.60;79.30;;;;;;5105086;28;20024;-67
2022/04/26 13:06:18;;;;;;;5.60;3.25;;;12.80;78.90;;;;;;5081645;28;20028;-66
2022/04/26 13:08:51;;;;;;;7.47;3.78;;;12.70;79.40;;;;;;5082212;28;20436;-66
2022/04/26 13:11:18;;;;;;;6.30;3.60;;;12.80;80.20;;;;;;5101896;28;20328;-68
2022/04/26 13:13:48;;;;;;;6.65;3.10;;;13.20;77.50;;;;;;5096042;28;20020;-68
2022/04/26 13:16:14;;;;;;;6.38;3.97;;;13.40;76.40;;;;;;5095292;28;20027;-67
2022/04/26 13:18:42;;;;;;;5.40;3.50;;;13.50;76.50;;;;;;5078534;28;20059;-67
2022/04/26 13:21:08;;;;;;;6.45;3.45;;;13.70;75.20;;;;;;5097505;28;20310;-68
2022/04/26 13:23:34;;;;;;;7.57;3.60;;;14.20;75.70;;;;;;5097059;28;20082;-67
2022/04/26 13:26:01;;;;;;;6.30;4.47;;;13.80;74.10;;;;;;5097211;28;20024;-67
2022/04/26 13:28:27;;;;;;;8.98;5.20;;;13.50;74.20;;;;;;5098380;28;20412;-67
2022/04/26 13:30:53;;;;;;;9.45;5.93;;;13.50;74.60;;;;;;5096506;28;20081;-66
2022/04/26 13:33:19;;;;;;;9.77;6.13;;;13.90;71.20;;;;;;5097049;28;20027;-67
2022/04/26 13:35:45;;;;;;;10.48;6.10;;;13.80;71.30;;;;;;5097164;28;20417;-67
2022/04/26 13:38:12;;;;;;;9.00;6.30;;;13.50;72.40;;;;;;5097698;28;20042;-69
2022/04/26 13:40:41;;;;;;;9.10;6.30;;;13.40;73.40;;;;;;5094350;28;20321;-68
2022/04/26 13:43:08;;;;;;;8.98;5.95;;;13.50;74.20;;;;;;5090896;28;20032;-67
2022/04/26 13:45:35;;;;;;;9.75;5.68;;;13.80;73.80;;;;;;5094415;28;20416;-67
2022/04/26 13:48:01;;;;;;;8.23;5.50;;;13.50;74.70;;;;;;5078501;28;20325;-67
2022/04/26 13:50:29;;;;;;;8.82;6.07;;;13.30;75.80;;;;;;5096817;28;20028;-69
2022/04/26 13:52:55;;;;;;;7.65;5.43;;;12.70;76.30;;;;;;5063937;28;20036;-68
2022/04/26 13:55:21;;;;;;;7.63;5.43;;;12.40;78.80;;;;;;5093298;28;20032;-67
2022/04/26 13:57:49;;;;;;;9.88;5.90;;;12.90;77.20;;;;;;5095931;28;20028;-67
2022/04/26 14:00:23;;;;;;;9.20;5.53;;;13.30;75.80;;;;;;5095653;28;20313;-67
2022/04/26 14:03:08;;;;;;;7.85;5.40;;;13.60;73.80;;;;;;5096951;28;20035;-67
2022/04/26 14:05:36;;;;;;;;;;;13.70;73.60;;;;;;5078280;28;20028;-66
2022/04/26 14:08:02;;;;;;;6.55;4.72;;;14.10;74.50;;;;;;5081236;28;19919;-66
2022/04/26 14:10:28;;;;;;;10.07;6.30;;;14.50;74.30;;;;;;5080869;28;20119;-66
2022/04/26 14:12:55;;;;;;;9.30;6.57;;;14.40;71.90;;;;;;5095438;28;20095;-66
2022/04/26 14:23:36;;;;;;;11.57;7.15;;;11.40;80.20;;;;;;5096794;28;20046;-67
2022/04/26 14:26:11;;;;;;;9.65;5.30;;;11.20;82.20;;;;;;5096133;28;20028;-66
2022/04/26 14:28:37;;;;;;;9.63;5.93;;;10.90;82.60;;;;;;5095671;28;20107;-67
2022/04/26 14:31:03;;;;;;;9.30;5.40;;;10.90;83.20;;;;;;5077482;28;20124;-65
2022/04/26 14:33:29;;;;;;;9.90;5.20;;;11.10;82.20;;;;;;5094122;28;20032;-68
2022/04/26 14:35:55;;;;;;;7.40;5.05;;;11.90;80.60;;;;;;5095083;28;20125;-67
2022/04/26 14:38:20;;;;;;;10.15;5.97;;;12.30;79.80;;;;;;5096822;28;20024;-67
2022/04/26 14:40:47;;;;;;;9.05;5.57;;;12.80;78.50;;;;;;5096248;28;21740;-67
2022/04/26 14:43:14;;;;;;;9.35;6.15;;;12.60;78.00;;;;;;5096969;28;20028;-67
2022/04/26 14:45:45;;;;;;;13.32;8.68;;;12.10;80.00;;;;;;5095632;28;20024;-67
2022/04/26 14:48:12;;;;;;;7.88;5.03;;;12.50;81.00;;;;;;5094173;28;20445;-67
2022/04/26 14:50:38;;;;;;;7.18;4.63;;;13.00;76.60;;;;;;5095391;28;20485;-66
2022/04/26 14:53:04;;;;;;;11.63;7.07;;;13.80;76.50;;;;;;5096468;28;20039;-66
2022/04/26 14:55:29;;;;;;;7.07;4.80;;;14.50;74.00;;;;;;5096574;28;20028;-68
2022/04/26 14:57:55;;;;;;;8.82;5.93;;;14.70;73.10;;;;;;5095538;28;20290;-67
2022/04/26 15:00:21;;;;;;;7.43;4.28;;;14.40;72.80;;;;;;5078079;28;20131;-67
2022/04/26 15:02:46;;;;;;;5.85;3.92;;;14.70;73.70;;;;;;5094070;28;20028;-67
2022/04/26 15:05:13;;;;;;;5.75;4.10;;;15.30;72.50;;;;;;5095321;28;20024;-67
2022/04/26 15:10:25;;;;;;;10.25;5.95;;;14.30;73.40;;;;;;5096162;28;20047;-67
2022/04/26 15:18:21;;;;;;;8.25;5.28;;;11.50;80.70;;;;;;5095335;28;20443;-68
2022/04/26 15:20:51;;;;;;;8.70;5.47;;;11.60;82.30;;;;;;5093478;28;20054;-68
2022/04/26 15:23:17;;;;;;;6.57;4.70;;;11.30;84.20;;;;;;5096259;28;20128;-68
2022/04/26 15:25:50;;;;;;;8.27;5.32;;;11.40;83.80;;;;;;5095744;28;20101;-68
2022/04/26 15:28:21;;;;;;;10.95;6.15;;;11.80;83.00;;;;;;5095583;28;20024;-67
2022/04/26 15:30:48;;;;;;;8.48;5.78;;;11.90;80.90;;;;;;5080201;28;20051;-67
2022/04/26 15:33:15;;;;;;;8.02;5.60;;;11.80;80.30;;;;;;5076111;28;20024;-68
2022/04/26 15:35:42;;;;;;;8.05;5.20;;;11.50;80.90;;;;;;5095844;28;20073;-68
2022/04/26 15:38:10;;;;;;;8.63;6.00;;;11.40;83.40;;;;;;5096026;28;20024;-68
2022/04/26 15:40:37;;;;;;;8.20;5.82;;;11.70;82.40;;;;;;5094889;28;20024;-69
2022/04/26 15:43:05;;;;;;;9.57;6.55;;;11.60;81.80;;;;;;5056094;28;20363;-68
2022/04/26 15:45:30;;;;;;;9.80;6.10;;;11.40;82.50;;;;;;5081765;28;20024;-68
2022/04/26 15:47:56;;;;;;;11.95;6.80;;;11.20;83.80;;;;;;5084199;28;20822;-68
2022/04/26 15:50:23;;;;;;;10.00;6.78;;;11.10;83.40;;;;;;5080672;28;20035;-68
2022/04/26 15:52:50;;;;;;;12.13;8.57;;;11.10;83.40;;;;;;5093135;28;20516;-68
2022/04/26 15:55:17;;;;;;;12.25;8.13;;;10.90;83.80;;;;;;5095845;28;20028;-68
2022/04/26 15:57:47;;;;;;;9.88;7.07;;;10.90;84.20;;;;;;5095954;28;20030;-68
2022/04/26 16:00:14;;;;;;;10.32;7.35;;;10.80;84.20;;;;;;5076770;28;20080;-68
2022/04/26 16:02:43;;;;;;;9.23;6.35;;;11.50;84.50;;;;;;5093345;28;20028;-68
2022/04/26 16:05:09;;;;;;;9.88;6.47;;;13.10;79.80;;;;;;5077572;28;20077;-68
2022/04/26 16:07:35;;;;;;;8.82;6.70;;;14.20;76.10;;;;;;5088028;28;20302;-68
2022/04/26 16:21:00;;;;;;;10.57;7.28;;;11.20;83.40;;;;;;5098846;28;20095;-66
2022/04/26 16:23:26;;;;;;;9.80;6.88;;;11.20;84.90;;;;;;5099555;28;20328;-67
2022/04/26 16:25:52;;;;;;;8.98;6.63;;;11.50;83.50;;;;;;5099371;28;20664;-67
2022/04/26 16:28:18;;;;;;;9.85;6.65;;;11.20;83.80;;;;;;5099074;28;20404;-66
2022/04/26 16:30:44;;;;;;;10.85;7.10;;;10.80;85.40;;;;;;5099316;28;20020;-68
2022/04/26 16:33:12;;;;;;;9.85;6.60;;;10.50;86.00;;;;;;5094939;28;20405;-68
2022/04/26 16:35:41;;;;;;;9.07;6.80;;;10.20;87.80;;;;;;5098370;28;20336;-68
2022/04/26 16:38:07;;;;;;;13.20;8.55;;;10.00;88.50;;;;;;5080981;28;20024;-68
2022/04/26 16:40:34;;;;;;;11.93;8.18;;;10.00;89.40;;;;;;5098717;28;20035;-67
2022/04/26 16:43:02;;;;;;;12.07;8.40;;;10.00;89.70;;;;;;5099208;28;20050;-69
2022/04/26 16:45:28;;;;;;;11.45;7.38;;;10.00;89.80;;;;;;5098252;28;20060;-68
2022/04/26 16:47:58;;;;;;;15.35;10.93;;;10.00;89.70;;;;;;5097881;28;20024;-68
2022/04/26 16:50:26;;;;;;;11.75;8.73;;;10.00;89.90;;;;;;5078716;28;20337;-68
2022/04/26 16:52:54;;;;;;;12.02;7.78;;;10.10;89.80;;;;;;5092209;28;20103;-65
2022/04/26 16:55:21;;;;;;;11.40;7.65;;;10.00;89.90;;;;;;5080952;28;20074;-67
2022/04/26 16:57:47;;;;;;;11.52;7.90;;;9.80;90.40;;;;;;5098757;28;20053;-67
2022/04/26 17:00:14;;;;;;;10.27;8.20;;;9.60;91.20;;;;;;5098870;28;20051;-67
2022/04/26 17:02:41;;;;;;;11.50;8.18;;;9.50;91.40;;;;;;5097957;28;20107;-67
2022/04/26 17:05:07;;;;;;;12.20;7.95;;;9.40;91.90;;;;;;5098826;28;20028;-66
2022/04/26 17:07:33;;;;;;;11.02;7.93;;;9.40;92.30;;;;;;5098180;28;20036;-66
2022/04/26 17:09:59;;;;;;;13.77;9.70;;;9.40;92.20;;;;;;5116131;28;20073;-68
2022/04/26 17:12:27;;;;;;;13.20;9.48;;;9.30;92.50;;;;;;5099769;28;20106;-67
2022/04/26 17:14:54;;;;;;;18.70;12.02;;;9.30;92.80;;;;;;5098611;28;20031;-68
2022/04/26 17:17:21;;;;;;;10.63;7.72;;;9.30;93.20;;;;;;5079011;28;20020;-67
2022/04/26 17:19:48;;;;;;;10.00;7.97;;;9.30;93.10;;;;;;5087531;28;20028;-66
2022/04/26 17:22:20;;;;;;;11.38;8.10;;;9.30;93.10;;;;;;5095157;28;20024;-66
2022/04/26 17:27:30;;;;;;;8.48;5.53;;;9.20;94.10;;;;;;5094198;28;20439;-68
2022/04/26 17:29:56;;;;;;;8.10;5.55;;;9.00;93.50;;;;;;5098142;28;20409;-68
2022/04/26 17:32:22;;;;;;;7.65;5.28;;;8.90;93.00;;;;;;5097319;28;20024;-67
2022/04/26 17:34:50;;;;;;;6.28;3.80;;;8.80;92.20;;;;;;5094959;28;20024;-67
2022/04/26 17:37:15;;;;;;;5.00;3.33;;;8.80;91.20;;;;;;5096469;28;20027;-67
2022/04/26 17:39:46;;;;;;;5.20;3.10;;;8.60;90.00;;;;;;5081316;28;20024;-66
2022/04/26 17:42:12;;;;;;;4.97;3.28;;;8.50;90.60;;;;;;5097028;28;20416;-66
2022/04/26 17:44:40;;;;;;;5.15;2.92;;;8.50;91.40;;;;;;5094325;28;20031;-66
2022/04/26 17:47:09;;;;;;;6.72;3.75;;;8.40;91.70;;;;;;5098087;28;20034;-65
2022/04/26 17:49:36;;;;;;;5.07;3.42;;;8.30;92.20;;;;;;5094215;28;20024;-66
2022/04/26 17:52:02;;;;;;;5.80;3.28;;;8.30;92.40;;;;;;5097352;28;20048;-66
2022/04/26 17:57:12;;;;;;;6.68;3.10;;;8.30;93.00;;;;;;5097792;28;20066;-68
2022/04/26 17:59:38;;;;;;;6.18;4.00;;;8.20;93.10;;;;;;5095194;28;20044;-67
2022/04/26 18:02:04;;;;;;;8.32;3.78;;;8.20;93.40;;;;;;5097531;28;20171;-66
2022/04/26 18:04:29;;;;;;;5.70;3.67;;;8.20;93.40;;;;;;5098392;28;20133;-67
2022/04/26 18:06:55;;;;;;;8.68;3.90;;;8.20;93.50;;;;;;5096818;28;20424;-67